sensor_id;sensor_type;location;lat;lon;timestamp;P1;durP1;ratioP1;P2;durP2;ratioP2
4078;SDS011;2054;47.858;11.156;2023-04-24T02:46:02;0.93;;;0.70;;
4078;SDS011;2054;47.858;11.156;2023-04-24T02:48:29;0.60;;;0.60;;
4078;SDS011;2054;47.858;11.156;2023-04-24T02:50:57;0.60;;;0.60;;
4078;SDS011;2054;47.858;11.156;2023-04-24T02:53:24;0.95;;;0.60;;
4078;SDS011;2054;47.858;11.156;2023-04-24T02:55:51;0.50;;;0.50;;
4078;SDS011;2054;47.858;11.156;2023-04-24T02:58:19;1.42;;;0.68;;
4078;SDS011;2054;47.858;11.156;2023-04-24T03:00:46;1.65;;;1.13;;
4078;SDS011;2054;47.858;11.156;2023-04-24T03:03:15;3.92;;;1.92;;
4078;SDS011;2054;47.858;11.156;2023-04-24T03:05:42;2.58;;;1.30;;
4078;SDS011;2054;47.858;11.156;2023-04-24T03:08:09;2.22;;;1.00;;
4078;SDS011;2054;47.858;11.156;2023-04-24T03:10:37;2.53;;;0.80;;
4078;SDS011;2054;47.858;11.156;2023-04-24T03:13:04;0.60;;;0.60;;
4078;SDS011;2054;47.858;11.156;2023-04-24T03:15:31;1.05;;;0.60;;
4078;SDS011;2054;47.858;11.156;2023-04-24T03:17:58;0.60;;;0.60;;
4078;SDS011;2054;47.858;11.156;2023-04-24T03:20:29;4.15;;;0.60;;
4078;SDS011;2054;47.858;11.156;2023-04-24T03:22:56;0.82;;;0.63;;
4078;SDS011;2054;47.858;11.156;2023-04-24T03:25:23;0.63;;;0.60;;
4078;SDS011;2054;47.858;11.156;2023-04-24T03:27:50;2.17;;;1.00;;
4078;SDS011;2054;47.858;11.156;2023-04-24T03:30:19;0.80;;;0.80;;
4078;SDS011;2054;47.858;11.156;2023-04-24T03:32:47;1.73;;;0.70;;
4078;SDS011;2054;47.858;11.156;2023-04-24T03:35:14;2.42;;;0.90;;
4078;SDS011;2054;47.858;11.156;2023-04-24T03:37:43;1.05;;;0.95;;
4078;SDS011;2054;47.858;11.156;2023-04-24T03:40:10;2.78;;;1.20;;
4078;SDS011;2054;47.858;11.156;2023-04-24T03:42:37;1.23;;;0.70;;
4078;SDS011;2054;47.858;11.156;2023-04-24T03:45:05;2.45;;;0.73;;
4078;SDS011;2054;47.858;11.156;2023-04-24T03:47:33;1.95;;;0.90;;
4078;SDS011;2054;47.858;11.156;2023-04-24T03:50:00;0.88;;;0.80;;
4078;SDS011;2054;47.858;11.156;2023-04-24T03:52:28;1.70;;;1.05;;
4078;SDS011;2054;47.858;11.156;2023-04-24T03:54:57;0.80;;;0.80;;
4078;SDS011;2054;47.858;11.156;2023-04-24T03:57:24;0.60;;;0.60;;
4078;SDS011;2054;47.858;11.156;2023-04-24T03:59:51;0.50;;;0.50;;
4078;SDS011;2054;47.858;11.156;2023-04-24T04:02:19;1.30;;;0.60;;
4078;SDS011;2054;47.858;11.156;2023-04-24T04:04:46;0.60;;;0.60;;
4078;SDS011;2054;47.858;11.156;2023-04-24T04:07:13;0.70;;;0.60;;
4078;SDS011;2054;47.858;11.156;2023-04-24T04:09:41;0.50;;;0.50;;
4078;SDS011;2054;47.858;11.156;2023-04-24T04:12:10;0.75;;;0.70;;
4078;SDS011;2054;47.858;11.156;2023-04-24T04:14:37;0.60;;;0.60;;
4078;SDS011;2054;47.858;11.156;2023-04-24T04:17:05;0.40;;;0.40;;
4078;SDS011;2054;47.858;11.156;2023-04-24T04:19:32;0.88;;;0.60;;
4078;SDS011;2054;47.858;11.156;2023-04-24T04:21:59;0.50;;;0.40;;
4078;SDS011;2054;47.858;11.156;2023-04-24T04:24:27;0.52;;;0.52;;
4078;SDS011;2054;47.858;11.156;2023-04-24T04:26:54;0.50;;;0.50;;
4078;SDS011;2054;47.858;11.156;2023-04-24T04:29:24;1.45;;;0.60;;
4078;SDS011;2054;47.858;11.156;2023-04-24T04:31:51;0.50;;;0.50;;
4078;SDS011;2054;47.858;11.156;2023-04-24T04:34:20;0.50;;;0.50;;
4078;SDS011;2054;47.858;11.156;2023-04-24T04:36:47;0.32;;;0.32;;
4078;SDS011;2054;47.858;11.156;2023-04-24T04:39:15;0.70;;;0.70;;
4078;SDS011;2054;47.858;11.156;2023-04-24T04:41:43;0.57;;;0.57;;
4078;SDS011;2054;47.858;11.156;2023-04-24T04:44:14;0.50;;;0.50;;
4078;SDS011;2054;47.858;11.156;2023-04-24T04:46:42;1.00;;;0.60;;
4078;SDS011;2054;47.858;11.156;2023-04-24T04:49:10;1.13;;;0.60;;
4078;SDS011;2054;47.858;11.156;2023-04-24T04:51:41;0.50;;;0.50;;
4078;SDS011;2054;47.858;11.156;2023-04-24T04:54:09;0.70;;;0.70;;
4078;SDS011;2054;47.858;11.156;2023-04-24T04:56:37;2.20;;;1.48;;
4078;SDS011;2054;47.858;11.156;2023-04-24T04:59:04;3.22;;;1.70;;
4078;SDS011;2054;47.858;11.156;2023-04-24T05:01:31;2.20;;;1.05;;
4078;SDS011;2054;47.858;11.156;2023-04-24T05:04:02;1.27;;;0.80;;
4078;SDS011;2054;47.858;11.156;2023-04-24T05:06:29;1.58;;;0.60;;
4078;SDS011;2054;47.858;11.156;2023-04-24T05:08:56;0.90;;;0.65;;
4078;SDS011;2054;47.858;11.156;2023-04-24T05:11:24;0.60;;;0.60;;
4078;SDS011;2054;47.858;11.156;2023-04-24T05:13:51;1.30;;;0.57;;
4078;SDS011;2054;47.858;11.156;2023-04-24T05:16:19;1.13;;;0.70;;
4078;SDS011;2054;47.858;11.156;2023-04-24T05:18:47;1.10;;;0.90;;
4078;SDS011;2054;47.858;11.156;2023-04-24T05:21:15;0.60;;;0.52;;
4078;SDS011;2054;47.858;11.156;2023-04-24T05:23:42;0.50;;;0.50;;
4078;SDS011;2054;47.858;11.156;2023-04-24T05:26:11;0.60;;;0.60;;
4078;SDS011;2054;47.858;11.156;2023-04-24T05:28:38;0.60;;;0.60;;
4078;SDS011;2054;47.858;11.156;2023-04-24T05:31:05;1.65;;;0.60;;
4078;SDS011;2054;47.858;11.156;2023-04-24T05:33:33;0.50;;;0.50;;
4078;SDS011;2054;47.858;11.156;2023-04-24T05:36:00;0.30;;;0.30;;
4078;SDS011;2054;47.858;11.156;2023-04-24T05:38:29;0.40;;;0.40;;
4078;SDS011;2054;47.858;11.156;2023-04-24T05:40:56;0.73;;;0.70;;
4078;SDS011;2054;47.858;11.156;2023-04-24T05:43:23;0.77;;;0.77;;
4078;SDS011;2054;47.858;11.156;2023-04-24T05:45:51;1.13;;;1.00;;
4078;SDS011;2054;47.858;11.156;2023-04-24T05:48:19;4.60;;;0.80;;
4078;SDS011;2054;47.858;11.156;2023-04-24T05:50:47;1.10;;;0.93;;
4078;SDS011;2054;47.858;11.156;2023-04-24T05:53:14;0.43;;;0.43;;
4078;SDS011;2054;47.858;11.156;2023-04-24T05:55:42;0.35;;;0.35;;
4078;SDS011;2054;47.858;11.156;2023-04-24T05:58:10;0.80;;;0.80;;
4078;SDS011;2054;47.858;11.156;2023-04-24T06:00:37;0.70;;;0.70;;
4078;SDS011;2054;47.858;11.156;2023-04-24T06:03:07;1.17;;;0.77;;
4078;SDS011;2054;47.858;11.156;2023-04-24T06:05:35;1.08;;;0.85;;
4078;SDS011;2054;47.858;11.156;2023-04-24T06:08:02;0.75;;;0.75;;
4078;SDS011;2054;47.858;11.156;2023-04-24T06:10:30;0.73;;;0.73;;
4078;SDS011;2054;47.858;11.156;2023-04-24T06:12:59;2.67;;;1.42;;
4078;SDS011;2054;47.858;11.156;2023-04-24T06:15:27;1.05;;;0.90;;
4078;SDS011;2054;47.858;11.156;2023-04-24T06:17:55;0.93;;;0.80;;
4078;SDS011;2054;47.858;11.156;2023-04-24T06:20:23;0.82;;;0.60;;
4078;SDS011;2054;47.858;11.156;2023-04-24T06:22:50;1.10;;;0.70;;
4078;SDS011;2054;47.858;11.156;2023-04-24T06:25:17;1.27;;;0.80;;
4078;SDS011;2054;47.858;11.156;2023-04-24T06:27:45;0.70;;;0.70;;
4078;SDS011;2054;47.858;11.156;2023-04-24T06:30:14;0.77;;;0.70;;
4078;SDS011;2054;47.858;11.156;2023-04-24T06:32:41;1.73;;;0.70;;
4078;SDS011;2054;47.858;11.156;2023-04-24T06:35:09;1.45;;;0.70;;
4078;SDS011;2054;47.858;11.156;2023-04-24T06:37:37;0.77;;;0.77;;
4078;SDS011;2054;47.858;11.156;2023-04-24T06:40:05;0.88;;;0.60;;
4078;SDS011;2054;47.858;11.156;2023-04-24T06:42:33;0.70;;;0.70;;
4078;SDS011;2054;47.858;11.156;2023-04-24T06:45:01;0.60;;;0.60;;
4078;SDS011;2054;47.858;11.156;2023-04-24T06:47:29;1.30;;;0.60;;
4078;SDS011;2054;47.858;11.156;2023-04-24T06:49:57;1.40;;;0.60;;
4078;SDS011;2054;47.858;11.156;2023-04-24T06:52:24;0.57;;;0.55;;
4078;SDS011;2054;47.858;11.156;2023-04-24T06:54:51;3.10;;;0.70;;
4078;SDS011;2054;47.858;11.156;2023-04-24T06:57:19;0.50;;;0.50;;
4078;SDS011;2054;47.858;11.156;2023-04-24T06:59:46;0.70;;;0.70;;
4078;SDS011;2054;47.858;11.156;2023-04-24T07:02:14;0.57;;;0.57;;
4078;SDS011;2054;47.858;11.156;2023-04-24T07:04:43;0.75;;;0.63;;
4078;SDS011;2054;47.858;11.156;2023-04-24T07:07:11;0.70;;;0.70;;
4078;SDS011;2054;47.858;11.156;2023-04-24T07:09:39;1.15;;;0.60;;
4078;SDS011;2054;47.858;11.156;2023-04-24T07:12:07;0.68;;;0.68;;
4078;SDS011;2054;47.858;11.156;2023-04-24T07:14:35;0.90;;;0.50;;
4078;SDS011;2054;47.858;11.156;2023-04-24T07:17:02;0.50;;;0.50;;
4078;SDS011;2054;47.858;11.156;2023-04-24T07:19:30;0.57;;;0.57;;
4078;SDS011;2054;47.858;11.156;2023-04-24T07:21:59;0.77;;;0.60;;
4078;SDS011;2054;47.858;11.156;2023-04-24T07:24:26;0.98;;;0.60;;
4078;SDS011;2054;47.858;11.156;2023-04-24T07:26:53;2.50;;;1.10;;
4078;SDS011;2054;47.858;11.156;2023-04-24T07:29:21;0.57;;;0.50;;
4078;SDS011;2054;47.858;11.156;2023-04-24T07:31:49;0.40;;;0.40;;
4078;SDS011;2054;47.858;11.156;2023-04-24T07:34:16;0.50;;;0.50;;
4078;SDS011;2054;47.858;11.156;2023-04-24T07:36:43;1.38;;;0.50;;
4078;SDS011;2054;47.858;11.156;2023-04-24T07:39:12;1.23;;;0.70;;
4078;SDS011;2054;47.858;11.156;2023-04-24T07:41:39;0.50;;;0.50;;
4078;SDS011;2054;47.858;11.156;2023-04-24T07:44:07;0.50;;;0.50;;
4078;SDS011;2054;47.858;11.156;2023-04-24T07:46:34;4.85;;;0.70;;
4078;SDS011;2054;47.858;11.156;2023-04-24T07:49:02;2.20;;;0.60;;
4078;SDS011;2054;47.858;11.156;2023-04-24T07:51:30;0.40;;;0.40;;
4078;SDS011;2054;47.858;11.156;2023-04-24T07:53:59;1.00;;;0.50;;
4078;SDS011;2054;47.858;11.156;2023-04-24T07:56:28;1.00;;;0.50;;
4078;SDS011;2054;47.858;11.156;2023-04-24T07:58:56;0.50;;;0.50;;
4078;SDS011;2054;47.858;11.156;2023-04-24T08:01:23;0.50;;;0.50;;
4078;SDS011;2054;47.858;11.156;2023-04-24T08:03:51;0.73;;;0.73;;
4078;SDS011;2054;47.858;11.156;2023-04-24T08:06:18;0.80;;;0.70;;
4078;SDS011;2054;47.858;11.156;2023-04-24T08:08:45;0.80;;;0.80;;
4078;SDS011;2054;47.858;11.156;2023-04-24T08:11:12;1.65;;;0.77;;
4078;SDS011;2054;47.858;11.156;2023-04-24T08:13:41;0.80;;;0.80;;
4078;SDS011;2054;47.858;11.156;2023-04-24T08:16:08;1.15;;;0.90;;
4078;SDS011;2054;47.858;11.156;2023-04-24T08:18:36;1.00;;;0.90;;
4078;SDS011;2054;47.858;11.156;2023-04-24T08:21:03;2.78;;;0.93;;
4078;SDS011;2054;47.858;11.156;2023-04-24T08:23:30;2.92;;;0.93;;
4078;SDS011;2054;47.858;11.156;2023-04-24T08:25:58;0.80;;;0.80;;
4078;SDS011;2054;47.858;11.156;2023-04-24T08:28:25;0.77;;;0.77;;
4078;SDS011;2054;47.858;11.156;2023-04-24T08:30:54;0.85;;;0.80;;
4078;SDS011;2054;47.858;11.156;2023-04-24T08:33:22;1.10;;;1.00;;
4078;SDS011;2054;47.858;11.156;2023-04-24T08:35:49;2.30;;;1.00;;
4078;SDS011;2054;47.858;11.156;2023-04-24T08:38:16;1.08;;;0.77;;
4078;SDS011;2054;47.858;11.156;2023-04-24T08:40:44;0.90;;;0.80;;
4078;SDS011;2054;47.858;11.156;2023-04-24T08:43:14;2.00;;;0.70;;
4078;SDS011;2054;47.858;11.156;2023-04-24T08:45:42;1.27;;;0.70;;
4078;SDS011;2054;47.858;11.156;2023-04-24T08:48:10;0.93;;;0.70;;
4078;SDS011;2054;47.858;11.156;2023-04-24T08:50:38;0.63;;;0.63;;
4078;SDS011;2054;47.858;11.156;2023-04-24T08:53:08;0.60;;;0.60;;
4078;SDS011;2054;47.858;11.156;2023-04-24T08:55:35;0.80;;;0.80;;
4078;SDS011;2054;47.858;11.156;2023-04-24T08:58:03;2.03;;;0.80;;
4078;SDS011;2054;47.858;11.156;2023-04-24T09:00:30;0.73;;;0.73;;
4078;SDS011;2054;47.858;11.156;2023-04-24T09:03:00;0.65;;;0.65;;
4078;SDS011;2054;47.858;11.156;2023-04-24T09:05:29;0.77;;;0.77;;
4078;SDS011;2054;47.858;11.156;2023-04-24T09:07:56;1.08;;;0.80;;
4078;SDS011;2054;47.858;11.156;2023-04-24T09:10:24;0.80;;;0.80;;
4078;SDS011;2054;47.858;11.156;2023-04-24T09:12:55;1.20;;;1.10;;
4078;SDS011;2054;47.858;11.156;2023-04-24T09:15:23;0.65;;;0.65;;
4078;SDS011;2054;47.858;11.156;2023-04-24T09:17:51;1.80;;;1.10;;
4078;SDS011;2054;47.858;11.156;2023-04-24T09:20:19;2.05;;;1.00;;
4078;SDS011;2054;47.858;11.156;2023-04-24T09:22:47;0.90;;;0.90;;
4078;SDS011;2054;47.858;11.156;2023-04-24T09:25:15;0.75;;;0.75;;
4078;SDS011;2054;47.858;11.156;2023-04-24T09:27:43;1.98;;;0.85;;
4078;SDS011;2054;47.858;11.156;2023-04-24T09:30:12;1.27;;;1.00;;
4078;SDS011;2054;47.858;11.156;2023-04-24T09:32:40;1.88;;;1.00;;
4078;SDS011;2054;47.858;11.156;2023-04-24T09:35:09;0.90;;;0.90;;
4078;SDS011;2054;47.858;11.156;2023-04-24T09:37:37;1.20;;;1.10;;
4078;SDS011;2054;47.858;11.156;2023-04-24T09:40:21;1.10;;;1.00;;
4078;SDS011;2054;47.858;11.156;2023-04-24T09:42:51;1.35;;;0.90;;
4078;SDS011;2054;47.858;11.156;2023-04-24T09:45:19;1.77;;;1.00;;
4078;SDS011;2054;47.858;11.156;2023-04-24T09:47:47;4.00;;;1.33;;
4078;SDS011;2054;47.858;11.156;2023-04-24T09:50:18;1.52;;;1.10;;
4078;SDS011;2054;47.858;11.156;2023-04-24T09:52:46;1.00;;;0.90;;
4078;SDS011;2054;47.858;11.156;2023-04-24T09:55:20;2.63;;;0.85;;
4078;SDS011;2054;47.858;11.156;2023-04-24T09:57:51;1.65;;;1.10;;
4078;SDS011;2054;47.858;11.156;2023-04-24T10:00:22;2.47;;;1.05;;
4078;SDS011;2054;47.858;11.156;2023-04-24T10:02:50;2.85;;;0.93;;
4078;SDS011;2054;47.858;11.156;2023-04-24T10:05:18;1.13;;;1.02;;
4078;SDS011;2054;47.858;11.156;2023-04-24T10:07:46;2.47;;;1.13;;
4078;SDS011;2054;47.858;11.156;2023-04-24T10:10:13;1.60;;;1.50;;
4078;SDS011;2054;47.858;11.156;2023-04-24T10:12:42;1.25;;;1.13;;
4078;SDS011;2054;47.858;11.156;2023-04-24T10:15:10;2.33;;;1.10;;
4078;SDS011;2054;47.858;11.156;2023-04-24T10:17:39;3.22;;;1.50;;
4078;SDS011;2054;47.858;11.156;2023-04-24T10:20:07;1.38;;;1.27;;
4078;SDS011;2054;47.858;11.156;2023-04-24T10:22:35;2.60;;;1.23;;
4078;SDS011;2054;47.858;11.156;2023-04-24T10:25:03;2.78;;;1.30;;
4078;SDS011;2054;47.858;11.156;2023-04-24T10:27:31;3.05;;;2.08;;
4078;SDS011;2054;47.858;11.156;2023-04-24T10:30:00;1.48;;;1.38;;
4078;SDS011;2054;47.858;11.156;2023-04-24T10:32:28;1.83;;;1.27;;
4078;SDS011;2054;47.858;11.156;2023-04-24T10:34:56;1.88;;;1.30;;
4078;SDS011;2054;47.858;11.156;2023-04-24T10:37:24;1.90;;;1.20;;
4078;SDS011;2054;47.858;11.156;2023-04-24T10:39:53;1.75;;;1.15;;
4078;SDS011;2054;47.858;11.156;2023-04-24T10:42:22;2.03;;;1.30;;
4078;SDS011;2054;47.858;11.156;2023-04-24T10:44:49;2.92;;;1.40;;
4078;SDS011;2054;47.858;11.156;2023-04-24T10:47:18;1.60;;;1.23;;
4078;SDS011;2054;47.858;11.156;2023-04-24T10:49:45;1.85;;;1.23;;
4078;SDS011;2054;47.858;11.156;2023-04-24T10:52:13;1.20;;;1.10;;
4078;SDS011;2054;47.858;11.156;2023-04-24T10:54:42;3.22;;;1.55;;
4078;SDS011;2054;47.858;11.156;2023-04-24T10:57:27;1.20;;;1.02;;
4078;SDS011;2054;47.858;11.156;2023-04-24T11:00:12;1.13;;;1.00;;
4078;SDS011;2054;47.858;11.156;2023-04-24T11:02:45;1.27;;;1.17;;
4078;SDS011;2054;47.858;11.156;2023-04-24T11:05:15;1.17;;;0.80;;
4078;SDS011;2054;47.858;11.156;2023-04-24T11:10:43;1.65;;;1.20;;
4078;SDS011;2054;47.858;11.156;2023-04-24T11:13:11;1.48;;;1.20;;
4078;SDS011;2054;47.858;11.156;2023-04-24T11:15:41;1.08;;;0.90;;
4078;SDS011;2054;47.858;11.156;2023-04-24T11:18:13;2.30;;;1.27;;
4078;SDS011;2054;47.858;11.156;2023-04-24T11:20:42;1.88;;;1.50;;
4078;SDS011;2054;47.858;11.156;2023-04-24T11:23:11;1.33;;;1.23;;
4078;SDS011;2054;47.858;11.156;2023-04-24T11:25:41;1.00;;;0.95;;
4078;SDS011;2054;47.858;11.156;2023-04-24T11:28:08;1.55;;;1.20;;
4078;SDS011;2054;47.858;11.156;2023-04-24T11:30:42;1.10;;;0.93;;
4078;SDS011;2054;47.858;11.156;2023-04-24T11:33:09;2.50;;;1.10;;
4078;SDS011;2054;47.858;11.156;2023-04-24T11:35:40;3.92;;;1.20;;
4078;SDS011;2054;47.858;11.156;2023-04-24T11:38:07;1.25;;;1.15;;
4078;SDS011;2054;47.858;11.156;2023-04-24T11:40:34;1.40;;;1.30;;
4078;SDS011;2054;47.858;11.156;2023-04-24T11:43:01;2.95;;;1.13;;
4078;SDS011;2054;47.858;11.156;2023-04-24T11:45:31;3.30;;;1.40;;
4078;SDS011;2054;47.858;11.156;2023-04-24T11:47:59;1.70;;;1.20;;
4078;SDS011;2054;47.858;11.156;2023-04-24T11:50:26;1.50;;;1.40;;
4078;SDS011;2054;47.858;11.156;2023-04-24T11:52:56;1.73;;;1.42;;
4078;SDS011;2054;47.858;11.156;2023-04-24T11:55:26;1.50;;;1.40;;
4078;SDS011;2054;47.858;11.156;2023-04-24T11:57:54;1.98;;;1.50;;
4078;SDS011;2054;47.858;11.156;2023-04-24T12:00:23;1.67;;;1.20;;
4078;SDS011;2054;47.858;11.156;2023-04-24T12:02:50;1.23;;;1.13;;
4078;SDS011;2054;47.858;11.156;2023-04-24T12:05:21;1.92;;;1.45;;
4078;SDS011;2054;47.858;11.156;2023-04-24T12:07:48;2.58;;;1.27;;
4078;SDS011;2054;47.858;11.156;2023-04-24T12:10:21;1.20;;;1.10;;
4078;SDS011;2054;47.858;11.156;2023-04-24T12:12:48;4.07;;;1.80;;
4078;SDS011;2054;47.858;11.156;2023-04-24T12:15:17;1.95;;;1.15;;
4078;SDS011;2054;47.858;11.156;2023-04-24T12:17:44;2.58;;;1.23;;
4078;SDS011;2054;47.858;11.156;2023-04-24T12:20:12;2.15;;;1.20;;
4078;SDS011;2054;47.858;11.156;2023-04-24T12:22:43;2.50;;;1.48;;
4078;SDS011;2054;47.858;11.156;2023-04-24T12:25:12;2.60;;;1.52;;
4078;SDS011;2054;47.858;11.156;2023-04-24T12:27:41;1.27;;;1.17;;
4078;SDS011;2054;47.858;11.156;2023-04-24T12:30:10;3.50;;;1.50;;
4078;SDS011;2054;47.858;11.156;2023-04-24T12:32:40;2.05;;;1.17;;
4078;SDS011;2054;47.858;11.156;2023-04-24T12:35:08;1.33;;;1.00;;
4078;SDS011;2054;47.858;11.156;2023-04-24T12:37:36;0.90;;;0.90;;
4078;SDS011;2054;47.858;11.156;2023-04-24T12:40:05;1.80;;;0.95;;
4078;SDS011;2054;47.858;11.156;2023-04-24T12:42:33;1.55;;;1.10;;
4078;SDS011;2054;47.858;11.156;2023-04-24T12:45:02;1.85;;;1.00;;
4078;SDS011;2054;47.858;11.156;2023-04-24T12:47:30;1.20;;;1.10;;
4078;SDS011;2054;47.858;11.156;2023-04-24T12:49:58;2.50;;;1.27;;
4078;SDS011;2054;47.858;11.156;2023-04-24T12:52:26;2.17;;;1.20;;
4078;SDS011;2054;47.858;11.156;2023-04-24T12:54:54;2.08;;;1.30;;
4078;SDS011;2054;47.858;11.156;2023-04-24T12:57:22;1.30;;;1.20;;
4078;SDS011;2054;47.858;11.156;2023-04-24T12:59:49;1.27;;;1.02;;
4078;SDS011;2054;47.858;11.156;2023-04-24T13:02:18;1.65;;;1.10;;
4078;SDS011;2054;47.858;11.156;2023-04-24T13:04:47;3.75;;;1.77;;
4078;SDS011;2054;47.858;11.156;2023-04-24T13:07:14;1.35;;;1.25;;
4078;SDS011;2054;47.858;11.156;2023-04-24T13:09:41;1.58;;;1.27;;
4078;SDS011;2054;47.858;11.156;2023-04-24T13:12:09;2.70;;;1.42;;
4078;SDS011;2054;47.858;11.156;2023-04-24T13:14:37;2.78;;;1.40;;
4078;SDS011;2054;47.858;11.156;2023-04-24T13:17:04;3.55;;;1.60;;
4078;SDS011;2054;47.858;11.156;2023-04-24T13:19:36;2.47;;;1.52;;
4078;SDS011;2054;47.858;11.156;2023-04-24T13:22:04;2.10;;;1.40;;
4078;SDS011;2054;47.858;11.156;2023-04-24T13:24:32;1.40;;;1.25;;
4078;SDS011;2054;47.858;11.156;2023-04-24T13:27:00;1.60;;;1.30;;
4078;SDS011;2054;47.858;11.156;2023-04-24T13:29:27;3.85;;;1.40;;
4078;SDS011;2054;47.858;11.156;2023-04-24T13:31:55;4.85;;;1.52;;
4078;SDS011;2054;47.858;11.156;2023-04-24T13:34:23;1.92;;;1.30;;
4078;SDS011;2054;47.858;11.156;2023-04-24T13:36:52;2.55;;;1.60;;
4078;SDS011;2054;47.858;11.156;2023-04-24T13:39:19;1.92;;;1.30;;
4078;SDS011;2054;47.858;11.156;2023-04-24T13:41:47;1.45;;;1.35;;
4078;SDS011;2054;47.858;11.156;2023-04-24T13:44:14;2.42;;;1.25;;
4078;SDS011;2054;47.858;11.156;2023-04-24T13:46:42;2.85;;;1.25;;
4078;SDS011;2054;47.858;11.156;2023-04-24T13:49:10;2.83;;;1.27;;
4078;SDS011;2054;47.858;11.156;2023-04-24T13:51:37;1.45;;;1.27;;
4078;SDS011;2054;47.858;11.156;2023-04-24T13:54:06;4.93;;;1.58;;
4078;SDS011;2054;47.858;11.156;2023-04-24T13:56:34;2.75;;;1.30;;
4078;SDS011;2054;47.858;11.156;2023-04-24T13:59:01;3.53;;;1.33;;
4078;SDS011;2054;47.858;11.156;2023-04-24T14:01:30;2.88;;;1.40;;
4078;SDS011;2054;47.858;11.156;2023-04-24T14:03:57;2.17;;;1.50;;
4078;SDS011;2054;47.858;11.156;2023-04-24T14:06:24;4.82;;;1.38;;
4078;SDS011;2054;47.858;11.156;2023-04-24T14:08:52;1.67;;;1.20;;
4078;SDS011;2054;47.858;11.156;2023-04-24T14:11:20;1.27;;;1.17;;
4078;SDS011;2054;47.858;11.156;2023-04-24T14:13:48;1.88;;;1.17;;
4078;SDS011;2054;47.858;11.156;2023-04-24T14:16:15;2.58;;;1.33;;
4078;SDS011;2054;47.858;11.156;2023-04-24T14:18:43;1.45;;;1.20;;
4078;SDS011;2054;47.858;11.156;2023-04-24T14:21:10;2.28;;;1.48;;
4078;SDS011;2054;47.858;11.156;2023-04-24T14:23:37;2.08;;;1.15;;
4078;SDS011;2054;47.858;11.156;2023-04-24T14:26:04;2.03;;;1.40;;
4078;SDS011;2054;47.858;11.156;2023-04-24T14:28:33;4.10;;;0.90;;
4078;SDS011;2054;47.858;11.156;2023-04-24T14:31:00;1.38;;;1.27;;
4078;SDS011;2054;47.858;11.156;2023-04-24T14:33:28;2.97;;;1.33;;
4078;SDS011;2054;47.858;11.156;2023-04-24T14:35:57;2.47;;;1.45;;
4078;SDS011;2054;47.858;11.156;2023-04-24T14:38:24;2.17;;;1.40;;
4078;SDS011;2054;47.858;11.156;2023-04-24T14:40:51;2.20;;;1.40;;
4078;SDS011;2054;47.858;11.156;2023-04-24T14:43:18;1.70;;;1.25;;
4078;SDS011;2054;47.858;11.156;2023-04-24T14:45:47;3.17;;;1.10;;
4078;SDS011;2054;47.858;11.156;2023-04-24T14:48:14;1.10;;;1.00;;
4078;SDS011;2054;47.858;11.156;2023-04-24T14:50:42;1.23;;;1.10;;
4078;SDS011;2054;47.858;11.156;2023-04-24T14:53:10;1.95;;;1.83;;
4078;SDS011;2054;47.858;11.156;2023-04-24T14:55:37;3.08;;;0.93;;
4078;SDS011;2054;47.858;11.156;2023-04-24T14:58:05;1.40;;;1.17;;
4078;SDS011;2054;47.858;11.156;2023-04-24T15:00:32;1.65;;;1.20;;
4078;SDS011;2054;47.858;11.156;2023-04-24T15:03:02;2.60;;;1.38;;
4078;SDS011;2054;47.858;11.156;2023-04-24T15:05:29;1.35;;;0.80;;
4078;SDS011;2054;47.858;11.156;2023-04-24T15:07:56;1.65;;;0.95;;
4078;SDS011;2054;47.858;11.156;2023-04-24T15:10:23;1.98;;;1.40;;
4078;SDS011;2054;47.858;11.156;2023-04-24T15:12:51;2.88;;;1.20;;
4078;SDS011;2054;47.858;11.156;2023-04-24T15:15:18;3.92;;;1.17;;
4078;SDS011;2054;47.858;11.156;2023-04-24T15:17:46;1.88;;;1.30;;
4078;SDS011;2054;47.858;11.156;2023-04-24T15:20:15;3.08;;;1.25;;
4078;SDS011;2054;47.858;11.156;2023-04-24T15:22:42;1.50;;;1.40;;
4078;SDS011;2054;47.858;11.156;2023-04-24T15:25:10;2.45;;;1.42;;
4078;SDS011;2054;47.858;11.156;2023-04-24T15:27:41;1.75;;;1.50;;
4078;SDS011;2054;47.858;11.156;2023-04-24T15:30:09;1.27;;;1.15;;
4078;SDS011;2054;47.858;11.156;2023-04-24T15:32:37;1.20;;;1.10;;
4078;SDS011;2054;47.858;11.156;2023-04-24T15:35:05;1.10;;;1.00;;
4078;SDS011;2054;47.858;11.156;2023-04-24T15:37:34;2.05;;;1.05;;
4078;SDS011;2054;47.858;11.156;2023-04-24T15:40:01;1.38;;;1.20;;
4078;SDS011;2054;47.858;11.156;2023-04-24T15:42:31;2.75;;;1.40;;
4078;SDS011;2054;47.858;11.156;2023-04-24T15:44:59;1.77;;;1.23;;
4078;SDS011;2054;47.858;11.156;2023-04-24T15:47:27;1.88;;;1.55;;
4078;SDS011;2054;47.858;11.156;2023-04-24T15:49:54;1.52;;;1.17;;
4078;SDS011;2054;47.858;11.156;2023-04-24T15:52:22;5.18;;;1.48;;
4078;SDS011;2054;47.858;11.156;2023-04-24T15:54:51;1.35;;;1.10;;
4078;SDS011;2054;47.858;11.156;2023-04-24T15:57:18;1.60;;;1.20;;
4078;SDS011;2054;47.858;11.156;2023-04-24T15:59:46;1.30;;;1.13;;
4078;SDS011;2054;47.858;11.156;2023-04-24T16:02:13;1.90;;;1.38;;
4078;SDS011;2054;47.858;11.156;2023-04-24T16:04:43;2.08;;;1.25;;
4078;SDS011;2054;47.858;11.156;2023-04-24T16:07:11;1.88;;;1.17;;
4078;SDS011;2054;47.858;11.156;2023-04-24T16:09:39;1.40;;;1.30;;
4078;SDS011;2054;47.858;11.156;2023-04-24T16:12:10;1.95;;;1.23;;
4078;SDS011;2054;47.858;11.156;2023-04-24T16:14:38;2.13;;;1.40;;
4078;SDS011;2054;47.858;11.156;2023-04-24T16:17:06;1.23;;;1.10;;
4078;SDS011;2054;47.858;11.156;2023-04-24T16:19:33;1.70;;;1.30;;
4078;SDS011;2054;47.858;11.156;2023-04-24T16:22:01;1.98;;;1.40;;
4078;SDS011;2054;47.858;11.156;2023-04-24T16:24:28;2.45;;;1.38;;
4078;SDS011;2054;47.858;11.156;2023-04-24T16:26:56;1.60;;;1.27;;
4078;SDS011;2054;47.858;11.156;2023-04-24T16:29:25;1.40;;;1.30;;
4078;SDS011;2054;47.858;11.156;2023-04-24T16:31:53;2.03;;;1.10;;
4078;SDS011;2054;47.858;11.156;2023-04-24T16:34:21;2.05;;;1.23;;
4078;SDS011;2054;47.858;11.156;2023-04-24T16:36:48;1.92;;;1.20;;
4078;SDS011;2054;47.858;11.156;2023-04-24T16:39:16;3.22;;;1.17;;
4078;SDS011;2054;47.858;11.156;2023-04-24T16:41:43;2.38;;;1.08;;
4078;SDS011;2054;47.858;11.156;2023-04-24T16:44:11;1.83;;;1.15;;
4078;SDS011;2054;47.858;11.156;2023-04-24T16:46:40;2.90;;;1.17;;
4078;SDS011;2054;47.858;11.156;2023-04-24T16:49:07;1.33;;;1.10;;
4078;SDS011;2054;47.858;11.156;2023-04-24T16:51:35;1.65;;;1.05;;
4078;SDS011;2054;47.858;11.156;2023-04-24T16:54:03;1.45;;;0.90;;
4078;SDS011;2054;47.858;11.156;2023-04-24T16:56:30;2.67;;;1.55;;
4078;SDS011;2054;47.858;11.156;2023-04-24T16:58:58;1.95;;;1.50;;
4078;SDS011;2054;47.858;11.156;2023-04-24T17:01:25;1.92;;;1.10;;
4078;SDS011;2054;47.858;11.156;2023-04-24T17:03:54;1.50;;;1.20;;
4078;SDS011;2054;47.858;11.156;2023-04-24T17:06:22;2.70;;;1.23;;
4078;SDS011;2054;47.858;11.156;2023-04-24T17:08:50;1.63;;;1.00;;
4078;SDS011;2054;47.858;11.156;2023-04-24T17:11:18;2.28;;;1.10;;
4078;SDS011;2054;47.858;11.156;2023-04-24T17:13:45;2.00;;;1.20;;
4078;SDS011;2054;47.858;11.156;2023-04-24T17:16:13;1.67;;;1.02;;
4078;SDS011;2054;47.858;11.156;2023-04-24T17:18:40;2.95;;;1.45;;
4078;SDS011;2054;47.858;11.156;2023-04-24T17:21:09;1.55;;;1.33;;
4078;SDS011;2054;47.858;11.156;2023-04-24T17:23:37;2.97;;;1.27;;
4078;SDS011;2054;47.858;11.156;2023-04-24T17:26:05;1.63;;;1.52;;
4078;SDS011;2054;47.858;11.156;2023-04-24T17:28:32;4.18;;;1.60;;
4078;SDS011;2054;47.858;11.156;2023-04-24T17:31:00;2.83;;;2.00;;
4078;SDS011;2054;47.858;11.156;2023-04-24T17:33:28;1.95;;;1.30;;
4078;SDS011;2054;47.858;11.156;2023-04-24T17:35:56;2.00;;;1.48;;
4078;SDS011;2054;47.858;11.156;2023-04-24T17:38:27;1.58;;;1.35;;
4078;SDS011;2054;47.858;11.156;2023-04-24T17:40:54;2.55;;;1.70;;
4078;SDS011;2054;47.858;11.156;2023-04-24T17:43:22;3.60;;;2.83;;
4078;SDS011;2054;47.858;11.156;2023-04-24T17:45:50;3.63;;;2.13;;
4078;SDS011;2054;47.858;11.156;2023-04-24T17:48:19;3.00;;;1.95;;
4078;SDS011;2054;47.858;11.156;2023-04-24T17:50:47;3.20;;;1.65;;
4078;SDS011;2054;47.858;11.156;2023-04-24T17:53:15;2.08;;;1.45;;